sensor_id;sensor_type;location;lat;lon;timestamp;P1;durP1;ratioP1;P2;durP2;ratioP2
5730;SDS011;2890;51.950;7.668;2023-01-10T00:00:41;10.77;;;7.57;;
5730;SDS011;2890;51.950;7.668;2023-01-10T00:03:08;14.70;;;7.77;;
5730;SDS011;2890;51.950;7.668;2023-01-10T00:05:36;19.20;;;8.37;;
5730;SDS011;2890;51.950;7.668;2023-01-10T00:08:04;16.63;;;8.47;;
5730;SDS011;2890;51.950;7.668;2023-01-10T00:10:31;14.80;;;8.43;;
5730;SDS011;2890;51.950;7.668;2023-01-10T00:12:58;16.07;;;8.87;;
5730;SDS011;2890;51.950;7.668;2023-01-10T00:18:39;19.50;;;9.93;;
5730;SDS011;2890;51.950;7.668;2023-01-10T00:21:05;21.40;;;10.40;;
5730;SDS011;2890;51.950;7.668;2023-01-10T00:23:33;18.43;;;9.43;;
5730;SDS011;2890;51.950;7.668;2023-01-10T00:26:00;22.73;;;9.57;;
5730;SDS011;2890;51.950;7.668;2023-01-10T00:28:26;21.30;;;9.37;;
5730;SDS011;2890;51.950;7.668;2023-01-10T00:30:53;24.93;;;9.47;;
5730;SDS011;2890;51.950;7.668;2023-01-10T00:33:26;16.97;;;9.10;;
5730;SDS011;2890;51.950;7.668;2023-01-10T00:35:52;18.40;;;8.60;;
5730;SDS011;2890;51.950;7.668;2023-01-10T00:38:19;24.00;;;10.37;;
5730;SDS011;2890;51.950;7.668;2023-01-10T00:40:45;26.17;;;9.17;;
5730;SDS011;2890;51.950;7.668;2023-01-10T00:43:12;25.70;;;10.17;;
5730;SDS011;2890;51.950;7.668;2023-01-10T00:45:56;26.37;;;9.47;;
5730;SDS011;2890;51.950;7.668;2023-01-10T00:48:23;22.27;;;8.13;;
5730;SDS011;2890;51.950;7.668;2023-01-10T00:50:51;20.63;;;8.73;;
5730;SDS011;2890;51.950;7.668;2023-01-10T00:53:17;20.83;;;8.90;;
5730;SDS011;2890;51.950;7.668;2023-01-10T00:55:44;23.17;;;9.50;;
5730;SDS011;2890;51.950;7.668;2023-01-10T00:58:11;23.30;;;9.33;;
5730;SDS011;2890;51.950;7.668;2023-01-10T01:00:38;18.80;;;7.80;;
5730;SDS011;2890;51.950;7.668;2023-01-10T01:03:05;25.93;;;9.73;;
5730;SDS011;2890;51.950;7.668;2023-01-10T01:05:32;22.20;;;10.10;;
5730;SDS011;2890;51.950;7.668;2023-01-10T01:08:01;20.37;;;9.63;;
5730;SDS011;2890;51.950;7.668;2023-01-10T01:10:28;22.47;;;9.90;;
5730;SDS011;2890;51.950;7.668;2023-01-10T01:12:56;18.13;;;8.30;;
5730;SDS011;2890;51.950;7.668;2023-01-10T01:15:24;23.93;;;9.33;;
5730;SDS011;2890;51.950;7.668;2023-01-10T01:17:51;18.77;;;8.23;;
5730;SDS011;2890;51.950;7.668;2023-01-10T01:20:18;20.80;;;8.17;;
5730;SDS011;2890;51.950;7.668;2023-01-10T01:22:45;23.87;;;9.27;;
5730;SDS011;2890;51.950;7.668;2023-01-10T01:25:13;21.30;;;8.70;;
5730;SDS011;2890;51.950;7.668;2023-01-10T01:27:40;20.43;;;9.30;;
5730;SDS011;2890;51.950;7.668;2023-01-10T01:30:07;26.70;;;8.70;;
5730;SDS011;2890;51.950;7.668;2023-01-10T01:32:35;19.17;;;8.57;;
5730;SDS011;2890;51.950;7.668;2023-01-10T01:35:01;22.97;;;7.60;;
5730;SDS011;2890;51.950;7.668;2023-01-10T01:37:28;18.67;;;7.40;;
5730;SDS011;2890;51.950;7.668;2023-01-10T01:39:55;19.00;;;7.67;;
5730;SDS011;2890;51.950;7.668;2023-01-10T01:42:24;20.80;;;8.23;;
5730;SDS011;2890;51.950;7.668;2023-01-10T01:47:50;20.17;;;8.20;;
5730;SDS011;2890;51.950;7.668;2023-01-10T01:50:20;22.80;;;6.80;;
5730;SDS011;2890;51.950;7.668;2023-01-10T01:52:48;14.83;;;7.43;;
5730;SDS011;2890;51.950;7.668;2023-01-10T01:55:15;14.23;;;7.23;;
5730;SDS011;2890;51.950;7.668;2023-01-10T01:57:43;12.13;;;6.40;;
5730;SDS011;2890;51.950;7.668;2023-01-10T02:00:11;19.37;;;7.83;;
5730;SDS011;2890;51.950;7.668;2023-01-10T02:02:40;20.47;;;8.87;;
5730;SDS011;2890;51.950;7.668;2023-01-10T02:05:09;21.70;;;8.20;;
5730;SDS011;2890;51.950;7.668;2023-01-10T02:07:38;22.83;;;7.50;;
5730;SDS011;2890;51.950;7.668;2023-01-10T02:10:07;16.83;;;7.23;;
5730;SDS011;2890;51.950;7.668;2023-01-10T02:12:36;20.93;;;7.27;;
5730;SDS011;2890;51.950;7.668;2023-01-10T02:15:04;15.77;;;7.23;;
5730;SDS011;2890;51.950;7.668;2023-01-10T02:17:31;18.53;;;6.93;;
5730;SDS011;2890;51.950;7.668;2023-01-10T02:19:59;19.60;;;7.30;;
5730;SDS011;2890;51.950;7.668;2023-01-10T02:22:35;15.80;;;6.83;;
5730;SDS011;2890;51.950;7.668;2023-01-10T02:25:39;17.43;;;6.77;;
5730;SDS011;2890;51.950;7.668;2023-01-10T02:28:22;16.10;;;7.37;;
5730;SDS011;2890;51.950;7.668;2023-01-10T02:31:21;14.70;;;6.77;;
5730;SDS011;2890;51.950;7.668;2023-01-10T02:33:58;11.57;;;6.13;;
5730;SDS011;2890;51.950;7.668;2023-01-10T02:36:30;18.13;;;6.73;;
5730;SDS011;2890;51.950;7.668;2023-01-10T02:39:03;15.33;;;6.50;;
5730;SDS011;2890;51.950;7.668;2023-01-10T02:41:37;19.37;;;7.20;;
5730;SDS011;2890;51.950;7.668;2023-01-10T02:44:07;18.70;;;7.00;;
5730;SDS011;2890;51.950;7.668;2023-01-10T02:46:37;20.10;;;6.30;;
5730;SDS011;2890;51.950;7.668;2023-01-10T02:49:06;16.10;;;6.73;;
5730;SDS011;2890;51.950;7.668;2023-01-10T02:51:32;18.10;;;6.57;;
5730;SDS011;2890;51.950;7.668;2023-01-10T02:53:59;21.63;;;6.93;;
5730;SDS011;2890;51.950;7.668;2023-01-10T02:56:32;16.40;;;6.03;;
5730;SDS011;2890;51.950;7.668;2023-01-10T03:02:18;18.37;;;6.63;;
5730;SDS011;2890;51.950;7.668;2023-01-10T03:04:51;13.73;;;6.30;;
5730;SDS011;2890;51.950;7.668;2023-01-10T03:07:21;18.77;;;6.97;;
5730;SDS011;2890;51.950;7.668;2023-01-10T03:09:52;19.03;;;6.17;;
5730;SDS011;2890;51.950;7.668;2023-01-10T03:12:20;15.67;;;7.23;;
5730;SDS011;2890;51.950;7.668;2023-01-10T03:14:50;17.73;;;6.20;;
5730;SDS011;2890;51.950;7.668;2023-01-10T03:17:17;18.37;;;6.37;;
5730;SDS011;2890;51.950;7.668;2023-01-10T03:19:46;14.50;;;5.47;;
5730;SDS011;2890;51.950;7.668;2023-01-10T03:22:16;16.13;;;6.27;;
5730;SDS011;2890;51.950;7.668;2023-01-10T03:24:43;13.63;;;6.20;;
5730;SDS011;2890;51.950;7.668;2023-01-10T03:27:13;16.33;;;6.07;;
5730;SDS011;2890;51.950;7.668;2023-01-10T03:36:25;23.73;;;7.13;;
5730;SDS011;2890;51.950;7.668;2023-01-10T03:38:56;18.67;;;6.40;;
5730;SDS011;2890;51.950;7.668;2023-01-10T03:41:32;16.07;;;6.30;;
5730;SDS011;2890;51.950;7.668;2023-01-10T03:44:03;23.07;;;6.67;;
5730;SDS011;2890;51.950;7.668;2023-01-10T03:46:54;16.20;;;6.10;;
5730;SDS011;2890;51.950;7.668;2023-01-10T03:49:23;20.20;;;6.07;;
5730;SDS011;2890;51.950;7.668;2023-01-10T03:51:50;20.30;;;5.87;;
5730;SDS011;2890;51.950;7.668;2023-01-10T03:54:19;12.83;;;4.93;;
5730;SDS011;2890;51.950;7.668;2023-01-10T03:56:46;16.17;;;5.70;;
5730;SDS011;2890;51.950;7.668;2023-01-10T03:59:13;16.93;;;4.77;;
5730;SDS011;2890;51.950;7.668;2023-01-10T04:01:40;13.27;;;5.03;;
5730;SDS011;2890;51.950;7.668;2023-01-10T04:04:07;13.83;;;4.60;;
5730;SDS011;2890;51.950;7.668;2023-01-10T04:06:33;12.53;;;5.20;;
5730;SDS011;2890;51.950;7.668;2023-01-10T04:09:00;21.13;;;4.90;;
5730;SDS011;2890;51.950;7.668;2023-01-10T04:11:28;14.80;;;4.30;;
5730;SDS011;2890;51.950;7.668;2023-01-10T04:13:54;15.30;;;5.03;;
5730;SDS011;2890;51.950;7.668;2023-01-10T04:16:21;13.53;;;4.30;;
5730;SDS011;2890;51.950;7.668;2023-01-10T04:18:47;16.20;;;4.80;;
5730;SDS011;2890;51.950;7.668;2023-01-10T04:21:13;15.20;;;4.47;;
5730;SDS011;2890;51.950;7.668;2023-01-10T04:23:40;14.07;;;4.53;;
5730;SDS011;2890;51.950;7.668;2023-01-10T04:26:07;15.87;;;4.97;;
5730;SDS011;2890;51.950;7.668;2023-01-10T04:28:35;13.10;;;4.73;;
5730;SDS011;2890;51.950;7.668;2023-01-10T04:31:01;13.90;;;4.37;;
5730;SDS011;2890;51.950;7.668;2023-01-10T04:33:28;12.33;;;4.47;;
5730;SDS011;2890;51.950;7.668;2023-01-10T04:35:54;11.60;;;4.87;;
5730;SDS011;2890;51.950;7.668;2023-01-10T04:38:21;12.23;;;4.87;;
5730;SDS011;2890;51.950;7.668;2023-01-10T04:40:50;18.37;;;4.90;;
5730;SDS011;2890;51.950;7.668;2023-01-10T04:43:18;19.47;;;5.70;;
5730;SDS011;2890;51.950;7.668;2023-01-10T04:45:46;14.33;;;4.23;;
5730;SDS011;2890;51.950;7.668;2023-01-10T04:48:12;13.90;;;4.37;;
5730;SDS011;2890;51.950;7.668;2023-01-10T04:50:39;16.27;;;4.90;;
5730;SDS011;2890;51.950;7.668;2023-01-10T04:53:05;13.67;;;5.23;;
5730;SDS011;2890;51.950;7.668;2023-01-10T04:55:32;16.33;;;5.70;;
5730;SDS011;2890;51.950;7.668;2023-01-10T04:58:00;15.53;;;5.43;;
5730;SDS011;2890;51.950;7.668;2023-01-10T05:00:27;11.60;;;4.47;;
5730;SDS011;2890;51.950;7.668;2023-01-10T05:02:55;18.73;;;5.00;;
5730;SDS011;2890;51.950;7.668;2023-01-10T05:05:22;13.50;;;5.73;;
5730;SDS011;2890;51.950;7.668;2023-01-10T05:07:48;16.20;;;5.80;;
5730;SDS011;2890;51.950;7.668;2023-01-10T05:10:15;9.60;;;4.30;;
5730;SDS011;2890;51.950;7.668;2023-01-10T05:12:42;22.37;;;6.33;;
5730;SDS011;2890;51.950;7.668;2023-01-10T05:15:09;15.83;;;6.23;;
5730;SDS011;2890;51.950;7.668;2023-01-10T05:17:36;16.53;;;5.90;;
5730;SDS011;2890;51.950;7.668;2023-01-10T05:20:04;19.57;;;6.03;;
5730;SDS011;2890;51.950;7.668;2023-01-10T05:22:31;19.27;;;5.97;;
5730;SDS011;2890;51.950;7.668;2023-01-10T05:24:58;15.10;;;6.23;;
5730;SDS011;2890;51.950;7.668;2023-01-10T05:27:24;14.47;;;6.03;;
5730;SDS011;2890;51.950;7.668;2023-01-10T05:29:51;22.67;;;6.97;;
5730;SDS011;2890;51.950;7.668;2023-01-10T05:32:17;20.70;;;6.10;;
5730;SDS011;2890;51.950;7.668;2023-01-10T05:34:44;21.47;;;6.00;;
5730;SDS011;2890;51.950;7.668;2023-01-10T05:37:11;22.57;;;6.40;;
5730;SDS011;2890;51.950;7.668;2023-01-10T05:39:38;15.87;;;5.77;;
5730;SDS011;2890;51.950;7.668;2023-01-10T05:42:05;17.13;;;5.67;;
5730;SDS011;2890;51.950;7.668;2023-01-10T05:44:31;22.43;;;7.53;;
5730;SDS011;2890;51.950;7.668;2023-01-10T05:46:58;19.43;;;5.97;;
5730;SDS011;2890;51.950;7.668;2023-01-10T05:49:24;14.07;;;6.00;;
5730;SDS011;2890;51.950;7.668;2023-01-10T05:51:51;15.57;;;6.60;;
5730;SDS011;2890;51.950;7.668;2023-01-10T05:54:19;18.10;;;5.83;;
5730;SDS011;2890;51.950;7.668;2023-01-10T05:56:45;13.17;;;5.37;;
5730;SDS011;2890;51.950;7.668;2023-01-10T05:59:12;12.17;;;5.30;;
5730;SDS011;2890;51.950;7.668;2023-01-10T06:01:38;16.17;;;6.13;;
5730;SDS011;2890;51.950;7.668;2023-01-10T06:04:05;19.50;;;6.47;;
5730;SDS011;2890;51.950;7.668;2023-01-10T06:06:31;10.67;;;5.57;;
5730;SDS011;2890;51.950;7.668;2023-01-10T06:08:58;16.23;;;6.03;;
5730;SDS011;2890;51.950;7.668;2023-01-10T06:11:26;12.07;;;5.30;;
5730;SDS011;2890;51.950;7.668;2023-01-10T06:13:54;16.60;;;6.07;;
5730;SDS011;2890;51.950;7.668;2023-01-10T06:16:26;20.93;;;5.87;;
5730;SDS011;2890;51.950;7.668;2023-01-10T06:18:58;15.30;;;5.47;;
5730;SDS011;2890;51.950;7.668;2023-01-10T06:21:24;17.60;;;5.83;;
5730;SDS011;2890;51.950;7.668;2023-01-10T06:23:51;18.43;;;5.50;;
5730;SDS011;2890;51.950;7.668;2023-01-10T06:26:17;21.67;;;5.63;;
5730;SDS011;2890;51.950;7.668;2023-01-10T06:28:45;11.73;;;5.57;;
5730;SDS011;2890;51.950;7.668;2023-01-10T06:31:11;12.23;;;5.23;;
5730;SDS011;2890;51.950;7.668;2023-01-10T06:33:39;20.60;;;5.70;;
5730;SDS011;2890;51.950;7.668;2023-01-10T06:36:08;14.40;;;5.00;;
5730;SDS011;2890;51.950;7.668;2023-01-10T06:38:34;18.83;;;5.47;;
5730;SDS011;2890;51.950;7.668;2023-01-10T06:41:01;14.80;;;5.20;;
5730;SDS011;2890;51.950;7.668;2023-01-10T06:43:36;14.17;;;4.80;;
5730;SDS011;2890;51.950;7.668;2023-01-10T06:46:05;15.33;;;4.93;;
5730;SDS011;2890;51.950;7.668;2023-01-10T06:48:33;17.27;;;4.83;;
5730;SDS011;2890;51.950;7.668;2023-01-10T06:51:00;14.27;;;5.40;;
5730;SDS011;2890;51.950;7.668;2023-01-10T06:53:27;19.97;;;5.80;;
5730;SDS011;2890;51.950;7.668;2023-01-10T06:55:53;20.90;;;5.40;;
5730;SDS011;2890;51.950;7.668;2023-01-10T06:58:21;18.43;;;5.30;;
5730;SDS011;2890;51.950;7.668;2023-01-10T07:00:48;15.70;;;5.10;;
5730;SDS011;2890;51.950;7.668;2023-01-10T07:03:16;25.43;;;6.03;;
5730;SDS011;2890;51.950;7.668;2023-01-10T07:05:42;18.07;;;5.47;;
5730;SDS011;2890;51.950;7.668;2023-01-10T07:08:09;13.77;;;4.83;;
5730;SDS011;2890;51.950;7.668;2023-01-10T07:10:36;18.40;;;6.77;;
5730;SDS011;2890;51.950;7.668;2023-01-10T07:13:05;16.73;;;5.00;;
5730;SDS011;2890;51.950;7.668;2023-01-10T07:15:31;15.90;;;5.13;;
5730;SDS011;2890;51.950;7.668;2023-01-10T07:17:58;19.83;;;5.10;;
5730;SDS011;2890;51.950;7.668;2023-01-10T07:20:26;19.50;;;4.50;;
5730;SDS011;2890;51.950;7.668;2023-01-10T07:22:53;15.33;;;4.73;;
5730;SDS011;2890;51.950;7.668;2023-01-10T07:25:20;14.60;;;4.73;;
5730;SDS011;2890;51.950;7.668;2023-01-10T07:27:48;18.77;;;5.27;;
5730;SDS011;2890;51.950;7.668;2023-01-10T07:30:16;22.93;;;5.57;;
5730;SDS011;2890;51.950;7.668;2023-01-10T07:32:43;17.03;;;4.57;;
5730;SDS011;2890;51.950;7.668;2023-01-10T07:35:09;17.70;;;5.20;;
5730;SDS011;2890;51.950;7.668;2023-01-10T07:37:38;16.37;;;4.87;;
5730;SDS011;2890;51.950;7.668;2023-01-10T07:40:05;17.03;;;5.27;;
5730;SDS011;2890;51.950;7.668;2023-01-10T07:42:33;19.57;;;5.77;;
5730;SDS011;2890;51.950;7.668;2023-01-10T07:45:00;15.30;;;5.37;;
5730;SDS011;2890;51.950;7.668;2023-01-10T07:47:31;10.83;;;4.87;;
5730;SDS011;2890;51.950;7.668;2023-01-10T07:49:57;21.93;;;5.53;;
5730;SDS011;2890;51.950;7.668;2023-01-10T07:52:24;23.10;;;5.50;;
5730;SDS011;2890;51.950;7.668;2023-01-10T07:54:52;21.17;;;6.07;;
5730;SDS011;2890;51.950;7.668;2023-01-10T07:57:18;23.97;;;6.43;;
5730;SDS011;2890;51.950;7.668;2023-01-10T07:59:45;19.47;;;5.77;;
5730;SDS011;2890;51.950;7.668;2023-01-10T08:02:11;21.73;;;6.17;;
5730;SDS011;2890;51.950;7.668;2023-01-10T08:04:38;20.73;;;6.23;;
5730;SDS011;2890;51.950;7.668;2023-01-10T08:07:05;22.07;;;6.83;;
5730;SDS011;2890;51.950;7.668;2023-01-10T08:09:31;20.27;;;6.20;;
5730;SDS011;2890;51.950;7.668;2023-01-10T08:12:00;15.77;;;5.20;;
5730;SDS011;2890;51.950;7.668;2023-01-10T08:14:33;16.57;;;6.27;;
5730;SDS011;2890;51.950;7.668;2023-01-10T08:17:00;19.67;;;5.83;;
5730;SDS011;2890;51.950;7.668;2023-01-10T08:19:26;16.13;;;5.57;;
5730;SDS011;2890;51.950;7.668;2023-01-10T08:21:53;20.00;;;6.33;;
5730;SDS011;2890;51.950;7.668;2023-01-10T08:24:20;18.13;;;6.20;;
5730;SDS011;2890;51.950;7.668;2023-01-10T08:26:46;18.10;;;5.50;;
5730;SDS011;2890;51.950;7.668;2023-01-10T08:29:15;17.93;;;6.10;;
5730;SDS011;2890;51.950;7.668;2023-01-10T08:31:42;23.50;;;6.80;;
5730;SDS011;2890;51.950;7.668;2023-01-10T08:34:09;16.53;;;6.50;;
5730;SDS011;2890;51.950;7.668;2023-01-10T08:36:37;19.83;;;6.23;;
5730;SDS011;2890;51.950;7.668;2023-01-10T08:39:04;22.00;;;6.53;;
5730;SDS011;2890;51.950;7.668;2023-01-10T08:41:30;19.27;;;6.50;;
5730;SDS011;2890;51.950;7.668;2023-01-10T08:43:57;21.67;;;7.33;;
5730;SDS011;2890;51.950;7.668;2023-01-10T08:46:24;21.47;;;7.17;;
5730;SDS011;2890;51.950;7.668;2023-01-10T08:48:51;23.83;;;6.67;;
5730;SDS011;2890;51.950;7.668;2023-01-10T08:51:17;20.87;;;7.10;;
5730;SDS011;2890;51.950;7.668;2023-01-10T08:53:44;15.60;;;5.93;;
5730;SDS011;2890;51.950;7.668;2023-01-10T08:56:10;17.00;;;7.37;;
5730;SDS011;2890;51.950;7.668;2023-01-10T08:58:37;20.77;;;7.17;;
5730;SDS011;2890;51.950;7.668;2023-01-10T09:01:04;16.43;;;6.37;;
5730;SDS011;2890;51.950;7.668;2023-01-10T09:03:32;24.77;;;6.87;;
5730;SDS011;2890;51.950;7.668;2023-01-10T09:05:58;23.77;;;7.33;;
5730;SDS011;2890;51.950;7.668;2023-01-10T09:08:26;25.13;;;7.13;;
5730;SDS011;2890;51.950;7.668;2023-01-10T09:10:53;15.70;;;5.53;;
5730;SDS011;2890;51.950;7.668;2023-01-10T09:13:19;15.97;;;5.70;;
5730;SDS011;2890;51.950;7.668;2023-01-10T09:15:45;18.93;;;5.97;;
5730;SDS011;2890;51.950;7.668;2023-01-10T09:18:12;24.67;;;6.00;;
5730;SDS011;2890;51.950;7.668;2023-01-10T09:20:40;23.20;;;5.57;;
5730;SDS011;2890;51.950;7.668;2023-01-10T09:23:08;18.23;;;5.70;;
5730;SDS011;2890;51.950;7.668;2023-01-10T09:25:35;17.80;;;4.80;;
5730;SDS011;2890;51.950;7.668;2023-01-10T09:28:03;17.97;;;6.03;;
5730;SDS011;2890;51.950;7.668;2023-01-10T09:30:30;18.17;;;5.63;;
5730;SDS011;2890;51.950;7.668;2023-01-10T09:32:57;28.40;;;6.53;;
5730;SDS011;2890;51.950;7.668;2023-01-10T09:35:24;20.93;;;6.67;;
5730;SDS011;2890;51.950;7.668;2023-01-10T09:37:53;21.83;;;5.67;;
5730;SDS011;2890;51.950;7.668;2023-01-10T09:40:24;24.07;;;6.43;;
5730;SDS011;2890;51.950;7.668;2023-01-10T09:43:00;15.53;;;6.03;;
5730;SDS011;2890;51.950;7.668;2023-01-10T09:45:32;17.97;;;6.10;;
5730;SDS011;2890;51.950;7.668;2023-01-10T09:48:05;18.73;;;5.80;;
5730;SDS011;2890;51.950;7.668;2023-01-10T09:50:35;20.00;;;5.90;;
5730;SDS011;2890;51.950;7.668;2023-01-10T09:53:09;25.07;;;6.30;;
5730;SDS011;2890;51.950;7.668;2023-01-10T09:55:37;18.77;;;6.53;;
5730;SDS011;2890;51.950;7.668;2023-01-10T09:58:05;21.33;;;6.73;;
5730;SDS011;2890;51.950;7.668;2023-01-10T10:00:35;18.07;;;6.57;;
5730;SDS011;2890;51.950;7.668;2023-01-10T10:03:04;23.27;;;6.17;;
5730;SDS011;2890;51.950;7.668;2023-01-10T10:05:40;20.27;;;6.33;;
5730;SDS011;2890;51.950;7.668;2023-01-10T10:08:07;18.53;;;6.70;;
5730;SDS011;2890;51.950;7.668;2023-01-10T10:10:42;22.63;;;7.10;;
5730;SDS011;2890;51.950;7.668;2023-01-10T10:13:19;23.57;;;6.67;;
5730;SDS011;2890;51.950;7.668;2023-01-10T10:15:48;25.57;;;8.07;;
5730;SDS011;2890;51.950;7.668;2023-01-10T10:18:20;25.13;;;7.73;;
5730;SDS011;2890;51.950;7.668;2023-01-10T10:20:53;21.30;;;7.53;;
5730;SDS011;2890;51.950;7.668;2023-01-10T10:26:31;20.37;;;8.67;;
5730;SDS011;2890;51.950;7.668;2023-01-10T10:29:06;21.40;;;7.40;;
5730;SDS011;2890;51.950;7.668;2023-01-10T10:34:54;21.70;;;8.27;;
5730;SDS011;2890;51.950;7.668;2023-01-10T10:37:24;24.33;;;8.17;;
5730;SDS011;2890;51.950;7.668;2023-01-10T10:39:57;24.00;;;8.37;;
5730;SDS011;2890;51.950;7.668;2023-01-10T10:42:28;15.90;;;7.80;;
5730;SDS011;2890;51.950;7.668;2023-01-10T10:44:57;25.83;;;9.00;;
5730;SDS011;2890;51.950;7.668;2023-01-10T10:47:26;18.63;;;8.60;;
5730;SDS011;2890;51.950;7.668;2023-01-10T10:49:57;27.77;;;9.27;;
5730;SDS011;2890;51.950;7.668;2023-01-10T10:52:33;23.40;;;8.17;;
5730;SDS011;2890;51.950;7.668;2023-01-10T10:55:01;25.10;;;8.70;;
5730;SDS011;2890;51.950;7.668;2023-01-10T10:57:30;28.77;;;8.40;;
5730;SDS011;2890;51.950;7.668;2023-01-10T10:59:58;22.80;;;9.03;;
5730;SDS011;2890;51.950;7.668;2023-01-10T11:02:27;27.87;;;8.83;;
5730;SDS011;2890;51.950;7.668;2023-01-10T11:04:55;22.23;;;9.53;;
5730;SDS011;2890;51.950;7.668;2023-01-10T11:07:23;24.63;;;8.57;;
5730;SDS011;2890;51.950;7.668;2023-01-10T11:09:52;25.43;;;9.60;;
5730;SDS011;2890;51.950;7.668;2023-01-10T11:12:24;20.07;;;8.47;;
5730;SDS011;2890;51.950;7.668;2023-01-10T11:14:55;21.57;;;8.67;;
5730;SDS011;2890;51.950;7.668;2023-01-10T11:17:23;26.33;;;9.70;;
5730;SDS011;2890;51.950;7.668;2023-01-10T11:19:55;25.47;;;9.50;;
5730;SDS011;2890;51.950;7.668;2023-01-10T11:22:23;21.73;;;8.43;;
5730;SDS011;2890;51.950;7.668;2023-01-10T11:24:50;23.10;;;8.63;;
5730;SDS011;2890;51.950;7.668;2023-01-10T11:27:19;26.03;;;8.47;;
5730;SDS011;2890;51.950;7.668;2023-01-10T11:29:47;22.37;;;8.77;;
5730;SDS011;2890;51.950;7.668;2023-01-10T11:32:17;28.93;;;8.43;;
5730;SDS011;2890;51.950;7.668;2023-01-10T11:34:49;26.37;;;8.27;;
5730;SDS011;2890;51.950;7.668;2023-01-10T11:37:19;24.70;;;8.03;;
5730;SDS011;2890;51.950;7.668;2023-01-10T11:39:49;28.57;;;6.70;;
5730;SDS011;2890;51.950;7.668;2023-01-10T11:42:35;16.00;;;6.67;;
5730;SDS011;2890;51.950;7.668;2023-01-10T11:45:20;28.27;;;7.87;;
5730;SDS011;2890;51.950;7.668;2023-01-10T11:47:49;25.63;;;6.67;;
5730;SDS011;2890;51.950;7.668;2023-01-10T11:50:19;23.30;;;7.30;;
5730;SDS011;2890;51.950;7.668;2023-01-10T11:52:47;20.30;;;7.67;;
5730;SDS011;2890;51.950;7.668;2023-01-10T11:55:16;22.70;;;7.17;;
5730;SDS011;2890;51.950;7.668;2023-01-10T11:57:44;14.27;;;5.57;;
5730;SDS011;2890;51.950;7.668;2023-01-10T12:00:12;22.97;;;6.83;;
5730;SDS011;2890;51.950;7.668;2023-01-10T12:02:40;27.90;;;6.63;;
5730;SDS011;2890;51.950;7.668;2023-01-10T12:05:10;21.47;;;6.10;;
5730;SDS011;2890;51.950;7.668;2023-01-10T12:07:54;25.07;;;5.87;;
5730;SDS011;2890;51.950;7.668;2023-01-10T12:10:22;20.10;;;5.40;;
5730;SDS011;2890;51.950;7.668;2023-01-10T12:12:53;20.47;;;6.37;;
5730;SDS011;2890;51.950;7.668;2023-01-10T12:15:23;20.87;;;5.60;;
5730;SDS011;2890;51.950;7.668;2023-01-10T12:17:51;23.57;;;6.30;;
5730;SDS011;2890;51.950;7.668;2023-01-10T12:20:22;17.60;;;5.27;;
5730;SDS011;2890;51.950;7.668;2023-01-10T12:22:49;23.87;;;5.70;;
5730;SDS011;2890;51.950;7.668;2023-01-10T12:25:19;20.70;;;5.90;;
5730;SDS011;2890;51.950;7.668;2023-01-10T12:27:48;19.50;;;5.30;;
5730;SDS011;2890;51.950;7.668;2023-01-10T12:30:15;18.47;;;5.23;;
5730;SDS011;2890;51.950;7.668;2023-01-10T12:32:46;19.53;;;6.00;;
5730;SDS011;2890;51.950;7.668;2023-01-10T12:35:15;21.63;;;5.70;;
5730;SDS011;2890;51.950;7.668;2023-01-10T12:37:46;11.90;;;4.47;;
5730;SDS011;2890;51.950;7.668;2023-01-10T12:40:18;18.73;;;5.87;;
5730;SDS011;2890;51.950;7.668;2023-01-10T12:42:51;17.27;;;4.43;;
5730;SDS011;2890;51.950;7.668;2023-01-10T12:45:38;13.70;;;4.37;;
5730;SDS011;2890;51.950;7.668;2023-01-10T12:48:09;20.43;;;4.63;;
5730;SDS011;2890;51.950;7.668;2023-01-10T12:50:41;19.03;;;5.77;;
5730;SDS011;2890;51.950;7.668;2023-01-10T12:53:16;24.90;;;5.70;;
5730;SDS011;2890;51.950;7.668;2023-01-10T12:55:51;14.33;;;4.53;;
5730;SDS011;2890;51.950;7.668;2023-01-10T12:58:19;16.23;;;4.80;;
5730;SDS011;2890;51.950;7.668;2023-01-10T13:00:49;16.87;;;4.43;;
5730;SDS011;2890;51.950;7.668;2023-01-10T13:03:19;18.13;;;4.57;;
5730;SDS011;2890;51.950;7.668;2023-01-10T13:05:46;21.13;;;5.10;;
5730;SDS011;2890;51.950;7.668;2023-01-10T13:08:18;21.43;;;4.40;;
5730;SDS011;2890;51.950;7.668;2023-01-10T13:10:47;18.17;;;4.23;;
5730;SDS011;2890;51.950;7.668;2023-01-10T13:13:15;21.73;;;4.70;;
5730;SDS011;2890;51.950;7.668;2023-01-10T13:15:47;22.50;;;5.13;;
5730;SDS011;2890;51.950;7.668;2023-01-10T13:18:16;17.00;;;4.60;;
5730;SDS011;2890;51.950;7.668;2023-01-10T13:20:50;17.90;;;4.80;;
5730;SDS011;2890;51.950;7.668;2023-01-10T13:23:29;16.70;;;4.13;;
5730;SDS011;2890;51.950;7.668;2023-01-10T13:26:01;18.23;;;4.37;;
5730;SDS011;2890;51.950;7.668;2023-01-10T13:28:33;14.93;;;4.07;;
5730;SDS011;2890;51.950;7.668;2023-01-10T13:31:00;15.67;;;4.43;;
5730;SDS011;2890;51.950;7.668;2023-01-10T13:33:28;14.57;;;3.90;;
5730;SDS011;2890;51.950;7.668;2023-01-10T13:35:56;19.07;;;4.20;;
5730;SDS011;2890;51.950;7.668;2023-01-10T13:38:25;17.17;;;4.57;;
5730;SDS011;2890;51.950;7.668;2023-01-10T13:40:56;15.53;;;4.33;;
5730;SDS011;2890;51.950;7.668;2023-01-10T13:43:25;20.57;;;4.40;;
5730;SDS011;2890;51.950;7.668;2023-01-10T13:49:22;15.73;;;4.10;;
5730;SDS011;2890;51.950;7.668;2023-01-10T13:58:01;17.83;;;4.37;;
5730;SDS011;2890;51.950;7.668;2023-01-10T14:03:47;17.13;;;4.00;;
5730;SDS011;2890;51.950;7.668;2023-01-10T14:06:17;15.97;;;4.23;;
5730;SDS011;2890;51.950;7.668;2023-01-10T14:08:49;12.83;;;3.40;;
5730;SDS011;2890;51.950;7.668;2023-01-10T14:11:17;14.47;;;4.50;;
5730;SDS011;2890;51.950;7.668;2023-01-10T14:13:49;17.83;;;4.73;;
5730;SDS011;2890;51.950;7.668;2023-01-10T14:16:33;21.03;;;5.23;;
5730;SDS011;2890;51.950;7.668;2023-01-10T14:19:02;16.07;;;4.50;;
5730;SDS011;2890;51.950;7.668;2023-01-10T14:21:30;19.60;;;4.03;;
5730;SDS011;2890;51.950;7.668;2023-01-10T14:24:00;14.03;;;4.73;;
5730;SDS011;2890;51.950;7.668;2023-01-10T14:26:28;17.43;;;5.40;;
5730;SDS011;2890;51.950;7.668;2023-01-10T14:28:59;15.03;;;4.20;;
5730;SDS011;2890;51.950;7.668;2023-01-10T14:31:26;14.37;;;4.20;;
5730;SDS011;2890;51.950;7.668;2023-01-10T14:33:53;14.97;;;4.37;;
5730;SDS011;2890;51.950;7.668;2023-01-10T14:36:23;17.37;;;4.23;;
5730;SDS011;2890;51.950;7.668;2023-01-10T14:38:52;14.57;;;4.43;;
5730;SDS011;2890;51.950;7.668;2023-01-10T14:41:25;14.37;;;4.73;;
5730;SDS011;2890;51.950;7.668;2023-01-10T14:43:56;23.93;;;3.90;;
5730;SDS011;2890;51.950;7.668;2023-01-10T14:46:28;18.23;;;3.97;;
5730;SDS011;2890;51.950;7.668;2023-01-10T14:48:56;16.30;;;3.73;;
5730;SDS011;2890;51.950;7.668;2023-01-10T14:51:25;15.00;;;4.10;;
5730;SDS011;2890;51.950;7.668;2023-01-10T14:53:56;18.57;;;4.00;;
5730;SDS011;2890;51.950;7.668;2023-01-10T14:56:25;12.77;;;3.73;;
5730;SDS011;2890;51.950;7.668;2023-01-10T14:58:53;18.83;;;4.17;;
5730;SDS011;2890;51.950;7.668;2023-01-10T15:01:22;16.13;;;3.57;;
5730;SDS011;2890;51.950;7.668;2023-01-10T15:03:50;15.33;;;3.63;;
5730;SDS011;2890;51.950;7.668;2023-01-10T15:06:18;13.93;;;3.57;;
5730;SDS011;2890;51.950;7.668;2023-01-10T15:08:44;11.70;;;3.37;;
5730;SDS011;2890;51.950;7.668;2023-01-10T15:11:11;20.37;;;4.03;;
5730;SDS011;2890;51.950;7.668;2023-01-10T15:13:40;13.10;;;3.57;;
5730;SDS011;2890;51.950;7.668;2023-01-10T15:16:11;15.33;;;3.50;;
5730;SDS011;2890;51.950;7.668;2023-01-10T15:18:44;15.33;;;4.03;;
5730;SDS011;2890;51.950;7.668;2023-01-10T15:21:11;12.70;;;3.90;;
5730;SDS011;2890;51.950;7.668;2023-01-10T15:23:39;18.23;;;4.07;;
5730;SDS011;2890;51.950;7.668;2023-01-10T15:26:07;13.53;;;3.30;;
5730;SDS011;2890;51.950;7.668;2023-01-10T15:28:35;12.43;;;3.93;;
5730;SDS011;2890;51.950;7.668;2023-01-10T15:31:02;16.37;;;3.23;;
5730;SDS011;2890;51.950;7.668;2023-01-10T15:33:30;12.40;;;2.83;;
5730;SDS011;2890;51.950;7.668;2023-01-10T15:36:02;13.57;;;3.83;;
5730;SDS011;2890;51.950;7.668;2023-01-10T15:38:29;13.97;;;3.20;;
5730;SDS011;2890;51.950;7.668;2023-01-10T15:40:59;12.53;;;4.00;;
5730;SDS011;2890;51.950;7.668;2023-01-10T15:43:27;14.67;;;3.33;;
5730;SDS011;2890;51.950;7.668;2023-01-10T15:45:54;13.17;;;2.77;;